Time;durP1;ratioP1;P1;durP2;ratioP2;P2;SDS_P1;SDS_P2;PMS_P1;PMS_P2;Temp;Humidity;BMP_temperature;BMP_pressure;BME280_temperature;BME280_humidity;BME280_pressure;Samples;Min_cycle;Max_cycle;Signal;HPM_P1;HPM_P2
2022/03/09 00:00:19;;;;;;;;;;;128.30;1228.80;;;;;;5036130;28;20355;-59
2022/03/09 00:02:44;;;;;;;;;;;128.30;1254.40;;;;;;5035442;28;19921;-59
2022/03/09 00:05:10;;;;;;;;;;;128.30;1228.80;;;;;;5036005;28;19972;-60
2022/03/09 00:07:36;;;;;;;;;;;128.20;1254.40;;;;;;5035693;28;19948;-59
2022/03/09 00:10:03;;;;;;;;;;;128.20;1254.40;;;;;;5035186;28;19999;-60
2022/03/09 00:12:28;;;;;;;;;;;128.10;1254.40;;;;;;5035355;28;20362;-59
2022/03/09 00:14:54;;;;;;;;;;;128.10;1254.40;;;;;;5035204;28;19916;-60
2022/03/09 00:17:19;;;;;;;;;;;128.10;1254.40;;;;;;5034831;28;19968;-61
2022/03/09 00:19:45;;;;;;;;;;;128.10;1254.40;;;;;;5035198;28;19909;-59
2022/03/09 00:22:11;;;;;;;;;;;128.10;1254.40;;;;;;5035339;28;19909;-59
2022/03/09 00:24:36;;;;;;;;;;;128.10;1254.40;;;;;;5034567;28;19925;-59
2022/03/09 00:27:02;;;;;;;;;;;128.20;1254.40;;;;;;5035091;28;20270;-59
2022/03/09 00:29:27;;;;;;;;;;;128.20;1254.40;;;;;;5035360;28;20008;-59
2022/03/09 00:31:53;;;;;;;;;;;128.10;1254.40;;;;;;5034695;28;19913;-59
2022/03/09 00:34:18;;;;;;;;;;;128.20;1254.40;;;;;;5034726;28;20677;-59
2022/03/09 00:36:44;;;;;;;;;;;128.10;1254.40;;;;;;5034998;28;19921;-59
2022/03/09 00:39:10;;;;;;;;;;;128.10;1254.40;;;;;;5032186;28;20071;-58
2022/03/09 00:41:36;;;;;;;;;;;128.20;1254.40;;;;;;5034787;28;19936;-61
2022/03/09 00:44:02;;;;;;;;;;;128.10;1254.40;;;;;;5035421;28;19909;-60
2022/03/09 00:46:27;;;;;;;;;;;128.10;1254.40;;;;;;5034534;28;20047;-59
2022/03/09 00:48:53;;;;;;;;;;;128.10;1254.40;;;;;;5034524;28;19920;-61
2022/03/09 00:51:18;;;;;;;;;;;128.10;1254.40;;;;;;5034401;28;19913;-60
2022/03/09 00:53:44;;;;;;;;;;;128.10;1254.40;;;;;;5034886;28;19910;-60
2022/03/09 00:56:10;;;;;;;;;;;128.10;1280.00;;;;;;5035002;28;20370;-59
2022/03/09 00:58:35;;;;;;;;;;;128.10;1254.40;;;;;;5033224;28;19984;-60
2022/03/09 01:01:01;;;;;;;;;;;128.00;1254.40;;;;;;5034692;28;19913;-61
2022/03/09 01:03:26;;;;;;;;;;;128.10;1254.40;;;;;;5034449;28;19928;-59
2022/03/09 01:05:52;;;;;;;;;;;128.10;1254.40;;;;;;5034525;28;20369;-60
2022/03/09 01:08:18;;;;;;;;;;;128.00;1254.40;;;;;;5034189;28;19913;-59
2022/03/09 01:10:43;;;;;;;;;;;128.10;1254.40;;;;;;5033936;28;19983;-59
2022/03/09 01:13:09;;;;;;;;;;;128.10;1280.00;;;;;;5034354;28;19956;-60
2022/03/09 01:15:34;;;;;;;;;;;128.00;1280.00;;;;;;5034039;28;19917;-60
2022/03/09 01:18:00;;;;;;;;;;;128.00;1280.00;;;;;;5033965;28;19932;-60
2022/03/09 01:20:25;;;;;;;;;;;128.00;1280.00;;;;;;5034358;28;19909;-60
2022/03/09 01:22:52;;;;;;;;;;;128.00;1280.00;;;;;;5034263;28;19909;-60
2022/03/09 01:25:18;;;;;;;;;;;128.00;1280.00;;;;;;5034399;28;19913;-62
2022/03/09 01:27:44;;;;;;;;;;;103.30;1254.40;;;;;;5034317;28;19909;-61
2022/03/09 01:30:09;;;;;;;;;;;103.30;1254.40;;;;;;5034324;28;19932;-62
2022/03/09 01:32:35;;;;;;;;;;;103.30;1254.40;;;;;;5034098;28;19915;-61
2022/03/09 01:35:01;;;;;;;;;;;103.30;1254.40;;;;;;5034614;28;19909;-59
2022/03/09 01:37:26;;;;;;;;;;;103.30;1254.40;;;;;;5033149;28;19927;-59
2022/03/09 01:39:52;;;;;;;;;;;103.30;1254.40;;;;;;5033825;28;20004;-59
2022/03/09 01:42:17;;;;;;;;;;;103.30;1254.40;;;;;;5033076;28;20302;-59
2022/03/09 01:44:43;;;;;;;;;;;103.30;1254.40;;;;;;5033988;28;20013;-60
2022/03/09 01:47:09;;;;;;;;;;;103.20;1254.40;;;;;;5031092;28;20354;-58
2022/03/09 01:49:36;;;;;;;;;;;103.30;1254.40;;;;;;5033514;28;19932;-58
2022/03/09 01:52:02;;;;;;;;;;;103.20;1254.40;;;;;;5033915;28;19909;-58
2022/03/09 01:54:28;;;;;;;;;;;103.20;1254.40;;;;;;5033537;28;19910;-58
2022/03/09 01:56:54;;;;;;;;;;;103.20;1280.00;;;;;;5033629;28;19928;-58
2022/03/09 01:59:20;;;;;;;;;;;103.20;1280.00;;;;;;5034036;28;19913;-57
2022/03/09 02:01:46;;;;;;;;;;;103.20;1280.00;;;;;;5033842;28;20019;-62
2022/03/09 02:04:11;;;;;;;;;;;103.20;1280.00;;;;;;5034143;28;19909;-61
2022/03/09 02:06:38;;;;;;;;;;;103.20;1280.00;;;;;;5034103;28;19909;-60
2022/03/09 02:11:50;;;;;;;;;;;103.20;1280.00;;;;;;5034394;28;19956;-61
2022/03/09 02:14:27;;;;;;;;;;;103.20;1280.00;;;;;;5034139;28;19909;-60
2022/03/09 02:16:53;;;;;;;;;;;103.20;1305.60;;;;;;5033820;28;20358;-59
2022/03/09 02:19:18;;;;;;;;;;;103.20;1305.60;;;;;;5034115;28;19956;-60
2022/03/09 02:21:45;;;;;;;;;;;103.20;1305.60;;;;;;5033809;28;20327;-59
2022/03/09 02:24:11;;;;;;;;;;;103.20;1280.00;;;;;;5034110;28;19913;-60
2022/03/09 02:26:36;;;;;;;;;;;103.20;1280.00;;;;;;5033801;28;19909;-59
2022/03/09 02:29:02;;;;;;;;;;;103.20;1305.60;;;;;;5033973;28;19917;-59
2022/03/09 02:31:28;;;;;;;;;;;103.20;1305.60;;;;;;5033899;28;19909;-60
2022/03/09 02:33:53;;;;;;;;;;;103.20;1305.60;;;;;;5033624;28;19909;-62
2022/03/09 02:36:20;;;;;;;;;;;103.20;1331.20;;;;;;5034089;28;20266;-60
2022/03/09 02:38:45;;;;;;;;;;;103.20;1331.20;;;;;;5033921;28;19917;-60
2022/03/09 02:41:11;;;;;;;;;;;103.20;1305.60;;;;;;5033908;28;20372;-62
2022/03/09 02:43:36;;;;;;;;;;;103.20;1305.60;;;;;;5033913;28;19924;-62
2022/03/09 02:46:02;;;;;;;;;;;103.20;1305.60;;;;;;5033808;28;19909;-60
2022/03/09 02:48:28;;;;;;;;;;;103.20;1305.60;;;;;;5033896;28;19916;-59
2022/03/09 02:50:53;;;;;;;;;;;103.20;1305.60;;;;;;5033290;28;20000;-60
2022/03/09 02:53:19;;;;;;;;;;;103.30;1280.00;;;;;;5033561;28;19910;-60
2022/03/09 02:55:44;;;;;;;;;;;103.20;1280.00;;;;;;5033819;28;19909;-62
2022/03/09 02:58:10;;;;;;;;;;;103.30;1305.60;;;;;;5032297;28;20374;-60
2022/03/09 03:00:35;;;;;;;;;;;103.30;1280.00;;;;;;5034100;28;19916;-62
2022/03/09 03:03:01;;;;;;;;;;;103.30;1280.00;;;;;;5036998;28;19921;-59
2022/03/09 03:05:26;;;;;;;;;;;103.30;1280.00;;;;;;5037284;28;19963;-60
2022/03/09 03:07:53;;;;;;;;;;;103.30;1280.00;;;;;;5037114;28;20298;-59
2022/03/09 03:10:19;;;;;;;;;;;128.00;1305.60;;;;;;5037287;28;19915;-61
2022/03/09 03:12:45;;;;;;;;;;;128.00;1305.60;;;;;;5037219;28;20273;-59
2022/03/09 03:15:10;;;;;;;;;;;128.00;1305.60;;;;;;5037169;28;19912;-59
2022/03/09 03:17:36;;;;;;;;;;;128.00;1305.60;;;;;;5036774;28;20004;-58
2022/03/09 03:20:02;;;;;;;;;;;128.00;1305.60;;;;;;5036968;28;19909;-59
2022/03/09 03:22:28;;;;;;;;;;;128.00;1305.60;;;;;;5036871;28;19909;-58
2022/03/09 03:24:53;;;;;;;;;;;103.30;1280.00;;;;;;5037060;28;19963;-59
2022/03/09 03:27:19;;;;;;;;;;;128.00;1305.60;;;;;;5036943;28;19909;-59
2022/03/09 03:29:44;;;;;;;;;;;128.00;1305.60;;;;;;5036926;28;20382;-58
2022/03/09 03:32:11;;;;;;;;;;;128.00;1280.00;;;;;;5036893;28;19960;-58
2022/03/09 03:34:37;;;;;;;;;;;128.00;1280.00;;;;;;5036747;28;19909;-59
2022/03/09 03:37:02;;;;;;;;;;;128.00;1280.00;;;;;;5036704;28;19924;-59
2022/03/09 03:39:28;;;;;;;;;;;103.30;1254.40;;;;;;5036827;28;19909;-59
2022/03/09 03:41:53;;;;;;;;;;;103.30;1254.40;;;;;;5036914;28;19916;-59
2022/03/09 03:44:19;;;;;;;;;;;103.20;1280.00;;;;;;5036634;28;20008;-60
2022/03/09 03:46:44;;;;;;;;;;;103.20;1280.00;;;;;;5036513;28;19909;-59
2022/03/09 03:49:10;;;;;;;;;;;103.20;1280.00;;;;;;5036498;28;19913;-59
2022/03/09 03:51:35;;;;;;;;;;;103.10;1280.00;;;;;;5036483;28;19942;-62
2022/03/09 03:54:01;;;;;;;;;;;103.10;1280.00;;;;;;5036562;28;19924;-59
2022/03/09 03:56:27;;;;;;;;;;;103.10;1280.00;;;;;;5036262;28;20382;-59
2022/03/09 03:58:52;;;;;;;;;;;103.10;1280.00;;;;;;5036341;28;19979;-59
2022/03/09 04:01:18;;;;;;;;;;;103.00;1280.00;;;;;;5036308;28;19910;-59
2022/03/09 04:03:43;;;;;;;;;;;103.00;1280.00;;;;;;5036069;28;19921;-59
2022/03/09 04:06:09;;;;;;;;;;;103.00;1280.00;;;;;;5036172;28;19913;-62
2022/03/09 04:08:34;;;;;;;;;;;103.00;1280.00;;;;;;5035914;28;19978;-61
2022/03/09 04:11:00;;;;;;;;;;;103.00;1280.00;;;;;;5036139;28;19999;-61
2022/03/09 04:13:26;;;;;;;;;;;103.10;1280.00;;;;;;5034930;28;19923;-58
2022/03/09 04:15:51;;;;;;;;;;;103.00;1280.00;;;;;;5035891;28;19916;-58
2022/03/09 04:18:17;;;;;;;;;;;103.00;1280.00;;;;;;5035898;28;19917;-58
2022/03/09 04:20:42;;;;;;;;;;;103.00;1280.00;;;;;;5035906;28;20363;-58
2022/03/09 04:23:09;;;;;;;;;;;103.00;1280.00;;;;;;5035831;28;19932;-61
2022/03/09 04:25:35;;;;;;;;;;;103.00;1280.00;;;;;;5035646;28;19909;-61
2022/03/09 04:28:01;;;;;;;;;;;102.90;1280.00;;;;;;5035670;28;20326;-58
2022/03/09 04:30:26;;;;;;;;;;;102.90;1280.00;;;;;;5035768;28;19917;-61
2022/03/09 04:32:52;;;;;;;;;;;102.90;1280.00;;;;;;5034274;28;19909;-58
2022/03/09 04:35:18;;;;;;;;;;;102.90;1280.00;;;;;;5035932;28;20319;-58
2022/03/09 04:37:43;;;;;;;;;;;102.90;1280.00;;;;;;5035479;28;19917;-61
2022/03/09 04:40:09;;;;;;;;;;;102.90;1280.00;;;;;;5035323;28;19996;-58
2022/03/09 04:42:34;;;;;;;;;;;102.80;1280.00;;;;;;5035848;28;19960;-58
2022/03/09 04:45:01;;;;;;;;;;;102.80;1280.00;;;;;;5035366;28;19913;-58
2022/03/09 04:47:26;;;;;;;;;;;102.80;1280.00;;;;;;5035486;28;19937;-60
2022/03/09 04:49:52;;;;;;;;;;;102.80;1280.00;;;;;;5035420;28;20247;-59
2022/03/09 04:52:18;;;;;;;;;;;102.80;1280.00;;;;;;5035274;28;19964;-58
2022/03/09 04:54:44;;;;;;;;;;;102.80;1280.00;;;;;;5035053;28;19909;-60
2022/03/09 04:57:09;;;;;;;;;;;102.70;1280.00;;;;;;5035266;28;19917;-58
2022/03/09 04:59:35;;;;;;;;;;;102.70;1280.00;;;;;;5035087;28;19909;-58
2022/03/09 05:02:01;;;;;;;;;;;102.70;1280.00;;;;;;5034942;28;19972;-58
2022/03/09 05:04:27;;;;;;;;;;;102.60;1280.00;;;;;;5035019;28;20351;-58
2022/03/09 05:06:52;;;;;;;;;;;102.60;1280.00;;;;;;5035079;28;19916;-62
2022/03/09 05:09:18;;;;;;;;;;;102.60;1280.00;;;;;;5034985;28;19913;-58
2022/03/09 05:11:43;;;;;;;;;;;102.60;1305.60;;;;;;5035025;28;19915;-58
2022/03/09 05:14:09;;;;;;;;;;;102.60;1305.60;;;;;;5035032;28;19909;-61
2022/03/09 05:16:34;;;;;;;;;;;102.60;1305.60;;;;;;5034771;28;19909;-58
2022/03/09 05:19:00;;;;;;;;;;;102.60;1331.20;;;;;;5035230;28;19928;-58
2022/03/09 05:21:25;;;;;;;;;;;102.50;1331.20;;;;;;5034640;28;19937;-60
2022/03/09 05:23:51;;;;;;;;;;;102.50;1331.20;;;;;;5034174;28;19932;-57
2022/03/09 05:26:17;;;;;;;;;;;102.50;1331.20;;;;;;5034506;28;19909;-58
2022/03/09 05:28:42;;;;;;;;;;;102.50;1331.20;;;;;;5034657;28;20008;-57
2022/03/09 05:31:08;;;;;;;;;;;102.50;1331.20;;;;;;5034525;28;19909;-62
2022/03/09 05:33:33;;;;;;;;;;;102.50;1331.20;;;;;;5034491;28;20303;-60
2022/03/09 05:35:59;;;;;;;;;;;102.50;1331.20;;;;;;5034553;28;19909;-57
2022/03/09 05:38:24;;;;;;;;;;;102.50;1331.20;;;;;;5034600;28;20347;-57
2022/03/09 05:40:50;;;;;;;;;;;102.50;1331.20;;;;;;5034410;28;19913;-57
2022/03/09 05:43:15;;;;;;;;;;;102.60;1356.80;;;;;;5034465;28;19928;-57
2022/03/09 05:45:41;;;;;;;;;;;102.60;1331.20;;;;;;5034462;28;20324;-58
2022/03/09 05:48:07;;;;;;;;;;;102.60;1356.80;;;;;;5034337;28;19965;-58
2022/03/09 05:50:32;;;;;;;;;;;102.60;1331.20;;;;;;5034215;28;19909;-57
2022/03/09 05:52:58;;;;;;;;;;;102.60;1356.80;;;;;;5034291;28;20325;-58
2022/03/09 05:55:23;;;;;;;;;;;102.70;1356.80;;;;;;5034064;28;20031;-58
2022/03/09 05:57:49;;;;;;;;;;;102.70;1356.80;;;;;;5034299;28;19917;-59
2022/03/09 06:00:15;;;;;;;;;;;102.80;1356.80;;;;;;5033899;28;19916;-58
2022/03/09 06:02:41;;;;;;;;;;;102.80;1356.80;;;;;;5033851;28;19931;-59
2022/03/09 06:05:07;;;;;;;;;;;102.80;1356.80;;;;;;5034518;28;20008;-58
2022/03/09 06:07:33;;;;;;;;;;;102.90;1356.80;;;;;;5034232;28;19955;-61
2022/03/09 06:09:59;;;;;;;;;;;102.90;1356.80;;;;;;5034102;28;19909;-62
2022/03/09 06:12:24;;;;;;;;;;;102.90;1382.40;;;;;;5034167;28;19916;-61
2022/03/09 06:14:50;;;;;;;;;;;102.90;1382.40;;;;;;5034113;28;19913;-57
2022/03/09 06:17:16;;;;;;;;;;;103.00;1382.40;;;;;;5033877;28;20273;-57
2022/03/09 06:19:41;;;;;;;;;;;103.00;1382.40;;;;;;5034099;28;19913;-57
2022/03/09 06:22:07;;;;;;;;;;;103.00;1382.40;;;;;;5034137;28;19913;-61
2022/03/09 06:24:32;;;;;;;;;;;103.00;1382.40;;;;;;5033926;28;20382;-60
2022/03/09 06:26:59;;;;;;;;;;;103.10;1382.40;;;;;;5033919;28;19955;-64
2022/03/09 06:29:25;;;;;;;;;;;103.10;1382.40;;;;;;5033463;28;19913;-61
2022/03/09 06:31:50;;;;;;;;;;;103.10;1382.40;;;;;;5033834;28;19967;-61
2022/03/09 06:34:17;;;;;;;;;;;103.20;1382.40;;;;;;5033979;28;19913;-60
2022/03/09 06:36:44;;;;;;;;;;;103.20;1382.40;;;;;;5035928;28;20317;-61
2022/03/09 06:39:13;;;;;;;;;;;103.20;1382.40;;;;;;5037704;28;20366;-58
2022/03/09 06:41:44;;;;;;;;;;;103.30;1382.40;;;;;;5037833;28;19909;-56
2022/03/09 06:44:10;;;;;;;;;;;103.30;1382.40;;;;;;5037519;28;19909;-56
2022/03/09 06:46:36;;;;;;;;;;;103.30;1382.40;;;;;;5037535;28;19909;-61
2022/03/09 06:49:02;;;;;;;;;;;103.30;1382.40;;;;;;5037475;28;19909;-57
2022/03/09 06:51:27;;;;;;;;;;;128.00;1408.00;;;;;;5037752;28;19909;-57
2022/03/09 06:53:53;;;;;;;;;;;128.00;1408.00;;;;;;5037878;28;19999;-61
2022/03/09 06:56:18;;;;;;;;;;;128.10;1408.00;;;;;;5037163;28;19913;-57
2022/03/09 06:58:45;;;;;;;;;;;128.10;1408.00;;;;;;5037828;28;19917;-57
2022/03/09 07:01:11;;;;;;;;;;;128.10;1408.00;;;;;;5037171;28;20398;-58
2022/03/09 07:03:36;;;;;;;;;;;128.10;1433.60;;;;;;5036999;28;20012;-57
2022/03/09 07:06:02;;;;;;;;;;;128.10;1433.60;;;;;;5037569;28;19913;-61
2022/03/09 07:08:28;;;;;;;;;;;128.20;1433.60;;;;;;5037142;28;20386;-57
2022/03/09 07:10:53;;;;;;;;;;;128.30;1433.60;;;;;;5037154;28;19909;-57
2022/03/09 07:13:19;;;;;;;;;;;128.30;1408.00;;;;;;5036866;28;19913;-60
2022/03/09 07:15:44;;;;;;;;;;;128.30;1433.60;;;;;;5036969;28;19940;-57
2022/03/09 07:18:10;;;;;;;;;;;128.40;1433.60;;;;;;5036543;28;19925;-61
2022/03/09 07:20:36;;;;;;;;;;;128.40;1433.60;;;;;;5036842;28;19909;-59
2022/03/09 07:23:01;;;;;;;;;;;128.40;1433.60;;;;;;5036801;28;20054;-57
2022/03/09 07:25:27;;;;;;;;;;;128.40;1433.60;;;;;;5036950;28;20003;-58
2022/03/09 07:27:52;;;;;;;;;;;128.50;1408.00;;;;;;5036785;28;19909;-61
2022/03/09 07:30:18;;;;;;;;;;;128.60;1408.00;;;;;;5036881;28;19913;-64
2022/03/09 07:32:44;;;;;;;;;;;128.60;1408.00;;;;;;5036683;28;19909;-62
2022/03/09 07:35:10;;;;;;;;;;;128.60;1408.00;;;;;;5036855;28;19909;-57
2022/03/09 07:37:36;;;;;;;;;;;128.70;1408.00;;;;;;5036793;28;20290;-58
2022/03/09 07:40:03;;;;;;;;;;;128.80;1382.40;;;;;;5036657;28;19916;-58
2022/03/09 07:42:29;;;;;;;;;;;128.90;1382.40;;;;;;5036148;28;19932;-60
2022/03/09 07:44:55;;;;;;;;;;;128.90;1382.40;;;;;;5036449;28;19909;-59
2022/03/09 07:47:21;;;;;;;;;;;153.60;1356.80;;;;;;5036096;28;19909;-59
2022/03/09 07:49:46;;;;;;;;;;;153.60;1356.80;;;;;;5036389;28;19909;-62
2022/03/09 07:52:12;;;;;;;;;;;153.60;1356.80;;;;;;5036395;28;19909;-58
2022/03/09 07:54:37;;;;;;;;;;;153.70;1356.80;;;;;;5036283;28;19909;-57
2022/03/09 07:57:03;;;;;;;;;;;153.70;1331.20;;;;;;5036275;28;20019;-58
2022/03/09 07:59:28;;;;;;;;;;;153.80;1331.20;;;;;;5036432;28;19920;-57
2022/03/09 08:01:55;;;;;;;;;;;153.80;1331.20;;;;;;5036017;28;19944;-57
2022/03/09 08:04:21;;;;;;;;;;;153.90;1331.20;;;;;;5036077;28;19913;-58
2022/03/09 08:06:50;;;;;;;;;;;153.90;1331.20;;;;;;5036231;28;20339;-63
2022/03/09 08:09:16;;;;;;;;;;;153.90;1331.20;;;;;;5036043;28;19917;-58
2022/03/09 08:11:42;;;;;;;;;;;154.00;1305.60;;;;;;5036208;28;19913;-58
2022/03/09 08:14:08;;;;;;;;;;;154.00;1305.60;;;;;;5036141;28;19909;-58
2022/03/09 08:16:33;;;;;;;;;;;154.00;1305.60;;;;;;5034926;28;20009;-61
2022/03/09 08:18:59;;;;;;;;;;;154.00;1331.20;;;;;;5035198;28;20367;-59
2022/03/09 08:21:25;;;;;;;;;;;154.10;1305.60;;;;;;5034858;28;19913;-61
2022/03/09 08:23:50;;;;;;;;;;;154.10;1305.60;;;;;;5035134;28;20363;-60
2022/03/09 08:26:16;;;;;;;;;;;154.10;1305.60;;;;;;5035152;28;19944;-57
2022/03/09 08:28:42;;;;;;;;;;;154.20;1305.60;;;;;;5035989;28;19920;-58
2022/03/09 08:31:07;;;;;;;;;;;154.20;1331.20;;;;;;5035428;28;20372;-58
2022/03/09 08:33:33;;;;;;;;;;;154.20;1305.60;;;;;;5035647;28;19995;-58
2022/03/09 08:35:59;;;;;;;;;;;154.20;1305.60;;;;;;5035568;28;19932;-58
2022/03/09 08:38:24;;;;;;;;;;;154.20;1305.60;;;;;;5035037;28;19975;-61
2022/03/09 08:40:50;;;;;;;;;;;154.30;1305.60;;;;;;5035171;28;19964;-61
2022/03/09 08:43:17;;;;;;;;;;;154.40;1305.60;;;;;;5035263;28;19920;-60
2022/03/09 08:45:43;;;;;;;;;;;154.40;1305.60;;;;;;5034127;28;19960;-60
2022/03/09 08:48:09;;;;;;;;;;;154.40;1305.60;;;;;;5034539;28;20007;-60
2022/03/09 08:50:34;;;;;;;;;;;154.50;1305.60;;;;;;5033609;28;19913;-58
2022/03/09 08:53:00;;;;;;;;;;;154.50;1280.00;;;;;;5035118;28;19920;-59
2022/03/09 08:55:25;;;;;;;;;;;154.50;1305.60;;;;;;5034909;28;20375;-58
2022/03/09 08:57:51;;;;;;;;;;;179.20;1305.60;;;;;;5034645;28;19928;-58
2022/03/09 09:00:17;;;;;;;;;;;179.20;1305.60;;;;;;5034753;28;20000;-58
2022/03/09 09:02:42;;;;;;;;;;;179.20;1305.60;;;;;;5034671;28;19975;-59
2022/03/09 09:05:08;;;;;;;;;;;179.30;1280.00;;;;;;5035264;28;19916;-59
2022/03/09 09:07:33;;;;;;;;;;;179.30;1280.00;;;;;;5034617;28;19915;-58
2022/03/09 09:09:59;;;;;;;;;;;179.40;1280.00;;;;;;5035167;28;19996;-59
2022/03/09 09:12:25;;;;;;;;;;;179.30;1254.40;;;;;;5034845;28;19935;-58
2022/03/09 09:14:50;;;;;;;;;;;179.40;1254.40;;;;;;5034891;28;19982;-59
2022/03/09 09:17:16;;;;;;;;;;;179.40;1254.40;;;;;;5034706;28;19918;-58
2022/03/09 09:19:41;;;;;;;;;;;179.50;1254.40;;;;;;5034410;28;20485;-58
2022/03/09 09:22:07;;;;;;;;;;;179.50;1228.80;;;;;;5034705;28;20377;-60
2022/03/09 09:24:33;;;;;;;;;;;179.50;1228.80;;;;;;5034803;28;19956;-58
2022/03/09 09:26:58;;;;;;;;;;;179.50;1228.80;;;;;;5034766;28;19916;-59
2022/03/09 09:29:24;;;;;;;;;;;179.50;1203.20;;;;;;5034748;28;19909;-59
2022/03/09 09:31:50;;;;;;;;;;;179.70;1228.80;;;;;;5034670;28;20382;-60
2022/03/09 09:34:16;;;;;;;;;;;179.60;1203.20;;;;;;5034523;28;19925;-59
2022/03/09 09:36:45;;;;;;;;;;;179.60;1228.80;;;;;;5034599;28;19940;-60
2022/03/09 09:39:13;;;;;;;;;;;179.60;1203.20;;;;;;5034435;28;20012;-59
2022/03/09 09:41:41;;;;;;;;;;;179.70;1203.20;;;;;;5034323;28;20005;-58
2022/03/09 09:44:07;;;;;;;;;;;179.70;1203.20;;;;;;5034441;28;19909;-58
2022/03/09 09:46:35;;;;;;;;;;;179.80;1228.80;;;;;;5034458;28;19919;-59
2022/03/09 09:49:00;;;;;;;;;;;179.80;1203.20;;;;;;5034391;28;20449;-59
2022/03/09 09:51:26;;;;;;;;;;;179.90;1203.20;;;;;;5034612;28;19948;-58
2022/03/09 09:53:52;;;;;;;;;;;179.90;1203.20;;;;;;5033891;28;20240;-58
2022/03/09 09:56:18;;;;;;;;;;;179.90;1203.20;;;;;;5034399;28;19909;-60
2022/03/09 09:58:44;;;;;;;;;;;180.00;1203.20;;;;;;5034261;28;19917;-59
2022/03/09 10:01:10;;;;;;;;;;;180.10;1177.60;;;;;;5034169;28;20044;-58
2022/03/09 10:03:36;;;;;;;;;;;180.10;1177.60;;;;;;5033965;28;19974;-58
2022/03/09 10:06:01;;;;;;;;;;;204.80;1177.60;;;;;;5034162;28;20000;-58
2022/03/09 10:08:27;;;;;;;;;;;204.80;1177.60;;;;;;5033967;28;20014;-62
2022/03/09 10:10:54;;;;;;;;;;;204.80;1152.00;;;;;;5036703;28;19916;-58
2022/03/09 10:13:24;;;;;;;;;;;204.90;1152.00;;;;;;5038389;28;19913;-58
2022/03/09 10:16:15;;;;;;;;;;;204.90;1152.00;;;;;;5038255;28;19955;-59
2022/03/09 10:18:48;;;;;;;;;;;205.00;1152.00;;;;;;5038140;28;19921;-59
2022/03/09 10:21:28;;;;;;;;;;;205.00;1152.00;;;;;;5038242;28;19909;-58
2022/03/09 10:24:01;;;;;;;;;;;205.10;1152.00;;;;;;5038174;28;19913;-59
2022/03/09 10:26:47;;;;;;;;;;;205.10;1152.00;;;;;;5037910;28;19909;-59
2022/03/09 10:29:14;;;;;;;;;;;205.20;1152.00;;;;;;5037637;28;19909;-60
2022/03/09 10:31:41;;;;;;;;;;;205.20;1126.40;;;;;;5037775;28;19910;-59
2022/03/09 10:34:11;;;;;;;;;;;205.20;1152.00;;;;;;5037939;28;19909;-59
2022/03/09 10:36:38;;;;;;;;;;;205.30;1126.40;;;;;;5038005;28;19917;-59
2022/03/09 10:39:14;;;;;;;;;;;205.30;1126.40;;;;;;5037712;28;19921;-59
2022/03/09 10:41:39;;;;;;;;;;;205.30;1126.40;;;;;;5037668;28;19995;-58
2022/03/09 10:44:05;;;;;;;;;;;205.30;1126.40;;;;;;5037229;28;19948;-58
2022/03/09 10:46:50;;;;;;;;;;;205.40;1152.00;;;;;;5037587;28;19909;-58
2022/03/09 10:49:18;;;;;;;;;;;205.40;1152.00;;;;;;5037619;28;19916;-59
2022/03/09 10:51:47;;;;;;;;;;;205.40;1152.00;;;;;;5037661;28;19916;-58
2022/03/09 10:54:19;;;;;;;;;;;205.50;1152.00;;;;;;5037568;28;20275;-59
2022/03/09 10:56:45;;;;;;;;;;;205.50;1152.00;;;;;;5037274;28;19909;-58
2022/03/09 10:59:15;;;;;;;;;;;205.60;1152.00;;;;;;5037231;28;19921;-59
2022/03/09 11:01:41;;;;;;;;;;;205.60;1152.00;;;;;;5037170;28;19964;-58
2022/03/09 11:04:15;;;;;;;;;;;205.60;1152.00;;;;;;5037148;28;19909;-59
2022/03/09 11:06:46;;;;;;;;;;;205.70;1152.00;;;;;;5037487;28;19913;-59
2022/03/09 11:09:18;;;;;;;;;;;205.70;1152.00;;;;;;5037158;28;19909;-59
2022/03/09 11:11:45;;;;;;;;;;;230.40;1152.00;;;;;;5037307;28;20317;-59
2022/03/09 11:14:11;;;;;;;;;;;230.40;1126.40;;;;;;5037140;28;19920;-58
2022/03/09 11:16:37;;;;;;;;;;;230.40;1126.40;;;;;;5037030;28;19948;-59
2022/03/09 11:19:03;;;;;;;;;;;230.40;1126.40;;;;;;5037007;28;19964;-59
2022/03/09 11:21:29;;;;;;;;;;;230.40;1126.40;;;;;;5036438;28;20389;-59
2022/03/09 11:23:54;;;;;;;;;;;230.40;1152.00;;;;;;5037128;28;20321;-59
2022/03/09 11:26:24;;;;;;;;;;;230.40;1126.40;;;;;;5037350;28;19923;-60
2022/03/09 11:28:58;;;;;;;;;;;230.40;1126.40;;;;;;5036971;28;19909;-59
2022/03/09 11:31:40;;;;;;;;;;;230.40;1126.40;;;;;;5036781;28;20409;-58
2022/03/09 11:34:06;;;;;;;;;;;230.40;1126.40;;;;;;5036948;28;19940;-58
2022/03/09 11:36:33;;;;;;;;;;;230.40;1126.40;;;;;;5036941;28;19909;-58
2022/03/09 11:39:04;;;;;;;;;;;230.50;1126.40;;;;;;5036484;28;20371;-59
2022/03/09 11:41:35;;;;;;;;;;;230.40;1126.40;;;;;;5036762;28;20321;-58
2022/03/09 11:44:19;;;;;;;;;;;230.50;1126.40;;;;;;5036408;28;19959;-59
2022/03/09 11:46:57;;;;;;;;;;;230.50;1126.40;;;;;;5036360;28;19936;-58
2022/03/09 11:49:23;;;;;;;;;;;230.50;1126.40;;;;;;5036480;28;19955;-62
2022/03/09 11:52:08;;;;;;;;;;;230.50;1126.40;;;;;;5036629;28;19932;-59
2022/03/09 11:54:41;;;;;;;;;;;230.50;1126.40;;;;;;5036361;28;19910;-59
2022/03/09 11:57:07;;;;;;;;;;;230.50;1100.80;;;;;;5035927;28;20367;-59
2022/03/09 11:59:33;;;;;;;;;;;230.60;1126.40;;;;;;5036571;28;19909;-58
2022/03/09 12:01:58;;;;;;;;;;;230.50;1100.80;;;;;;5036023;28;19947;-59
2022/03/09 12:04:39;;;;;;;;;;;230.60;1100.80;;;;;;5036307;28;19909;-59
2022/03/09 12:07:05;;;;;;;;;;;230.50;1100.80;;;;;;5036169;28;19931;-59
2022/03/09 12:09:49;;;;;;;;;;;230.60;1100.80;;;;;;5036233;28;20406;-59
2022/03/09 12:12:15;;;;;;;;;;;230.60;1100.80;;;;;;5036419;28;19909;-58
2022/03/09 12:14:59;;;;;;;;;;;230.50;1075.20;;;;;;5036570;28;19936;-59
2022/03/09 12:17:43;;;;;;;;;;;230.60;1100.80;;;;;;5035767;28;19917;-59
2022/03/09 12:20:23;;;;;;;;;;;230.60;1075.20;;;;;;5036277;28;19909;-58
2022/03/09 12:22:54;;;;;;;;;;;230.60;1075.20;;;;;;5035991;28;19931;-59
2022/03/09 12:25:36;;;;;;;;;;;230.60;1100.80;;;;;;5035872;28;19916;-59
2022/03/09 12:28:20;;;;;;;;;;;230.70;1075.20;;;;;;5035819;28;19955;-59
2022/03/09 12:30:47;;;;;;;;;;;230.70;1100.80;;;;;;5035618;28;19910;-59
2022/03/09 12:33:25;;;;;;;;;;;230.70;1075.20;;;;;;5034823;28;19909;-63
2022/03/09 12:35:51;;;;;;;;;;;230.80;1075.20;;;;;;5035591;28;19959;-59
2022/03/09 12:38:17;;;;;;;;;;;230.80;1100.80;;;;;;5035548;28;20367;-59
2022/03/09 12:40:45;;;;;;;;;;;230.90;1075.20;;;;;;5035584;28;19916;-59
2022/03/09 12:43:11;;;;;;;;;;;230.90;1075.20;;;;;;5035371;28;20393;-60
2022/03/09 12:45:55;;;;;;;;;;;230.90;1075.20;;;;;;5035623;28;19913;-59
2022/03/09 12:48:21;;;;;;;;;;;230.90;1075.20;;;;;;5035455;28;19913;-59
2022/03/09 12:50:47;;;;;;;;;;;231.00;1075.20;;;;;;5035367;28;19913;-59
2022/03/09 12:53:22;;;;;;;;;;;231.00;1075.20;;;;;;5035244;28;19909;-59
2022/03/09 12:55:47;;;;;;;;;;;231.00;1075.20;;;;;;5035111;28;19913;-59
2022/03/09 12:58:23;;;;;;;;;;;231.00;1075.20;;;;;;5034849;28;19921;-59
2022/03/09 13:01:08;;;;;;;;;;;231.00;1075.20;;;;;;5035535;28;20378;-59
2022/03/09 13:03:34;;;;;;;;;;;231.00;1049.60;;;;;;5034281;28;19921;-59
2022/03/09 13:06:07;;;;;;;;;;;231.10;1049.60;;;;;;5035176;28;19932;-59
2022/03/09 13:08:36;;;;;;;;;;;231.10;1049.60;;;;;;5035126;28;19912;-59
2022/03/09 13:11:04;;;;;;;;;;;231.10;1049.60;;;;;;5035171;28;19909;-59
2022/03/09 13:13:31;;;;;;;;;;;231.10;1049.60;;;;;;5035030;28;19964;-61
2022/03/09 13:15:59;;;;;;;;;;;231.10;1049.60;;;;;;5035016;28;19915;-61
2022/03/09 13:18:26;;;;;;;;;;;231.10;1203.20;;;;;;5033921;28;19921;-59
2022/03/09 13:20:52;;;;;;;;;;;231.30;1126.40;;;;;;5034143;28;19910;-59
2022/03/09 13:23:37;;;;;;;;;;;231.30;1100.80;;;;;;5034405;28;20331;-60
2022/03/09 13:26:13;;;;;;;;;;;231.20;1075.20;;;;;;5033592;28;20290;-59
2022/03/09 13:28:39;;;;;;;;;;;231.20;1075.20;;;;;;5032532;28;20355;-58
2022/03/09 13:31:05;;;;;;;;;;;231.20;1075.20;;;;;;5034028;28;19932;-59
2022/03/09 13:33:30;;;;;;;;;;;231.20;1075.20;;;;;;5034170;28;19913;-59
2022/03/09 13:35:56;;;;;;;;;;;231.20;1075.20;;;;;;5034185;28;19909;-59
2022/03/09 13:38:25;;;;;;;;;;;231.10;1075.20;;;;;;5033868;28;20051;-57
2022/03/09 13:41:11;;;;;;;;;;;231.10;1075.20;;;;;;5030628;28;20004;-57
2022/03/09 13:43:37;;;;;;;;;;;231.10;1075.20;;;;;;5032786;28;20274;-59